sensor_id;sensor_type;location;lat;lon;timestamp;P1;durP1;ratioP1;P2;durP2;ratioP2
21959;SDS011;11144;43.030;25.108;2024-01-27T00:00:19;18.25;;;6.97;;
21959;SDS011;11144;43.030;25.108;2024-01-27T00:01:53;12.73;;;5.38;;
21959;SDS011;11144;43.030;25.108;2024-01-27T00:03:26;14.82;;;7.07;;
21959;SDS011;11144;43.030;25.108;2024-01-27T00:04:59;11.25;;;5.45;;
21959;SDS011;11144;43.030;25.108;2024-01-27T00:06:32;12.43;;;5.05;;
21959;SDS011;11144;43.030;25.108;2024-01-27T00:08:05;14.27;;;6.65;;
21959;SDS011;11144;43.030;25.108;2024-01-27T00:09:40;18.75;;;8.35;;
21959;SDS011;11144;43.030;25.108;2024-01-27T00:11:12;22.35;;;9.50;;
21959;SDS011;11144;43.030;25.108;2024-01-27T00:12:45;23.27;;;9.55;;
21959;SDS011;11144;43.030;25.108;2024-01-27T00:14:18;15.98;;;7.50;;
21959;SDS011;11144;43.030;25.108;2024-01-27T00:15:51;17.92;;;7.50;;
21959;SDS011;11144;43.030;25.108;2024-01-27T00:17:27;11.30;;;6.47;;
21959;SDS011;11144;43.030;25.108;2024-01-27T00:19:00;22.08;;;7.25;;
21959;SDS011;11144;43.030;25.108;2024-01-27T00:20:33;11.38;;;5.40;;
21959;SDS011;11144;43.030;25.108;2024-01-27T00:22:06;16.25;;;6.13;;
21959;SDS011;11144;43.030;25.108;2024-01-27T00:23:40;15.15;;;6.80;;
21959;SDS011;11144;43.030;25.108;2024-01-27T00:25:12;28.75;;;10.15;;
21959;SDS011;11144;43.030;25.108;2024-01-27T00:26:46;15.48;;;7.47;;
21959;SDS011;11144;43.030;25.108;2024-01-27T00:28:19;17.75;;;7.38;;
21959;SDS011;11144;43.030;25.108;2024-01-27T00:29:52;19.13;;;8.02;;
21959;SDS011;11144;43.030;25.108;2024-01-27T00:31:25;16.40;;;7.03;;
21959;SDS011;11144;43.030;25.108;2024-01-27T00:32:59;19.73;;;7.35;;
21959;SDS011;11144;43.030;25.108;2024-01-27T00:34:33;14.10;;;5.25;;
21959;SDS011;11144;43.030;25.108;2024-01-27T00:36:05;10.35;;;5.03;;
21959;SDS011;11144;43.030;25.108;2024-01-27T00:37:39;8.35;;;4.03;;
21959;SDS011;11144;43.030;25.108;2024-01-27T00:39:11;6.75;;;4.18;;
21959;SDS011;11144;43.030;25.108;2024-01-27T00:40:45;7.53;;;4.32;;
21959;SDS011;11144;43.030;25.108;2024-01-27T00:42:17;9.98;;;4.53;;
21959;SDS011;11144;43.030;25.108;2024-01-27T00:43:55;10.88;;;4.68;;
21959;SDS011;11144;43.030;25.108;2024-01-27T00:45:29;17.67;;;6.45;;
21959;SDS011;11144;43.030;25.108;2024-01-27T00:47:02;13.35;;;5.72;;
21959;SDS011;11144;43.030;25.108;2024-01-27T00:48:37;18.45;;;7.07;;
21959;SDS011;11144;43.030;25.108;2024-01-27T00:50:10;9.70;;;4.65;;
21959;SDS011;11144;43.030;25.108;2024-01-27T00:51:43;12.90;;;5.68;;
21959;SDS011;11144;43.030;25.108;2024-01-27T00:53:16;14.68;;;6.95;;
21959;SDS011;11144;43.030;25.108;2024-01-27T00:54:49;18.05;;;8.48;;
21959;SDS011;11144;43.030;25.108;2024-01-27T00:56:21;13.05;;;5.88;;
21959;SDS011;11144;43.030;25.108;2024-01-27T00:57:55;10.77;;;5.95;;
21959;SDS011;11144;43.030;25.108;2024-01-27T00:59:27;14.80;;;6.10;;
21959;SDS011;11144;43.030;25.108;2024-01-27T01:01:01;10.63;;;5.13;;
21959;SDS011;11144;43.030;25.108;2024-01-27T01:02:33;7.32;;;4.60;;
21959;SDS011;11144;43.030;25.108;2024-01-27T01:04:08;10.27;;;4.22;;
21959;SDS011;11144;43.030;25.108;2024-01-27T01:05:40;21.00;;;8.25;;
21959;SDS011;11144;43.030;25.108;2024-01-27T01:07:14;8.88;;;4.57;;
21959;SDS011;11144;43.030;25.108;2024-01-27T01:08:46;7.03;;;3.88;;
21959;SDS011;11144;43.030;25.108;2024-01-27T01:10:20;11.65;;;4.05;;
21959;SDS011;11144;43.030;25.108;2024-01-27T01:11:52;11.50;;;4.28;;
21959;SDS011;11144;43.030;25.108;2024-01-27T01:13:26;9.20;;;4.25;;
21959;SDS011;11144;43.030;25.108;2024-01-27T01:14:58;10.60;;;4.32;;
21959;SDS011;11144;43.030;25.108;2024-01-27T01:16:32;15.32;;;4.95;;
21959;SDS011;11144;43.030;25.108;2024-01-27T01:18:04;14.18;;;4.78;;
21959;SDS011;11144;43.030;25.108;2024-01-27T01:19:40;11.88;;;4.95;;
21959;SDS011;11144;43.030;25.108;2024-01-27T01:21:13;14.05;;;4.78;;
21959;SDS011;11144;43.030;25.108;2024-01-27T01:22:46;8.70;;;4.47;;
21959;SDS011;11144;43.030;25.108;2024-01-27T01:24:19;10.50;;;6.00;;
21959;SDS011;11144;43.030;25.108;2024-01-27T01:25:52;10.60;;;5.30;;
21959;SDS011;11144;43.030;25.108;2024-01-27T01:27:25;12.18;;;5.82;;
21959;SDS011;11144;43.030;25.108;2024-01-27T01:28:58;12.60;;;4.72;;
21959;SDS011;11144;43.030;25.108;2024-01-27T01:30:31;11.80;;;4.35;;
21959;SDS011;11144;43.030;25.108;2024-01-27T01:32:04;8.88;;;4.40;;
21959;SDS011;11144;43.030;25.108;2024-01-27T01:33:37;11.38;;;5.38;;
21959;SDS011;11144;43.030;25.108;2024-01-27T01:35:11;20.60;;;8.75;;
21959;SDS011;11144;43.030;25.108;2024-01-27T01:36:44;13.13;;;5.80;;
21959;SDS011;11144;43.030;25.108;2024-01-27T01:38:17;8.82;;;4.90;;
21959;SDS011;11144;43.030;25.108;2024-01-27T01:39:50;7.38;;;4.07;;
21959;SDS011;11144;43.030;25.108;2024-01-27T01:41:22;7.35;;;3.47;;
21959;SDS011;11144;43.030;25.108;2024-01-27T01:42:56;6.32;;;3.20;;
21959;SDS011;11144;43.030;25.108;2024-01-27T01:44:30;6.18;;;3.22;;
21959;SDS011;11144;43.030;25.108;2024-01-27T01:46:03;14.10;;;3.55;;
21959;SDS011;11144;43.030;25.108;2024-01-27T01:47:38;6.32;;;3.25;;
21959;SDS011;11144;43.030;25.108;2024-01-27T01:49:10;9.65;;;3.40;;
21959;SDS011;11144;43.030;25.108;2024-01-27T01:50:45;7.55;;;4.00;;
21959;SDS011;11144;43.030;25.108;2024-01-27T01:52:18;10.02;;;3.72;;
21959;SDS011;11144;43.030;25.108;2024-01-27T01:53:54;8.85;;;3.85;;
21959;SDS011;11144;43.030;25.108;2024-01-27T01:55:29;6.07;;;3.38;;
21959;SDS011;11144;43.030;25.108;2024-01-27T01:57:03;10.10;;;3.38;;
21959;SDS011;11144;43.030;25.108;2024-01-27T01:58:35;6.65;;;3.15;;
21959;SDS011;11144;43.030;25.108;2024-01-27T02:00:10;8.88;;;3.20;;
21959;SDS011;11144;43.030;25.108;2024-01-27T02:01:43;8.13;;;2.50;;
21959;SDS011;11144;43.030;25.108;2024-01-27T02:03:17;7.88;;;3.30;;
21959;SDS011;11144;43.030;25.108;2024-01-27T02:04:51;15.70;;;3.17;;
21959;SDS011;11144;43.030;25.108;2024-01-27T02:06:24;5.78;;;3.03;;
21959;SDS011;11144;43.030;25.108;2024-01-27T02:07:58;7.90;;;3.17;;
21959;SDS011;11144;43.030;25.108;2024-01-27T02:09:32;10.18;;;3.20;;
21959;SDS011;11144;43.030;25.108;2024-01-27T02:11:05;10.45;;;4.32;;
21959;SDS011;11144;43.030;25.108;2024-01-27T02:12:39;32.45;;;13.73;;
21959;SDS011;11144;43.030;25.108;2024-01-27T02:14:11;24.25;;;10.10;;
21959;SDS011;11144;43.030;25.108;2024-01-27T02:15:45;31.25;;;12.30;;
21959;SDS011;11144;43.030;25.108;2024-01-27T02:17:18;22.40;;;10.80;;
21959;SDS011;11144;43.030;25.108;2024-01-27T02:18:51;11.80;;;5.13;;
21959;SDS011;11144;43.030;25.108;2024-01-27T02:20:25;11.65;;;4.47;;
21959;SDS011;11144;43.030;25.108;2024-01-27T02:21:59;10.60;;;4.05;;
21959;SDS011;11144;43.030;25.108;2024-01-27T02:23:32;15.70;;;4.93;;
21959;SDS011;11144;43.030;25.108;2024-01-27T02:25:07;17.13;;;6.00;;
21959;SDS011;11144;43.030;25.108;2024-01-27T02:26:41;8.73;;;4.78;;
21959;SDS011;11144;43.030;25.108;2024-01-27T02:28:14;11.45;;;4.25;;
21959;SDS011;11144;43.030;25.108;2024-01-27T02:29:47;14.45;;;6.82;;
21959;SDS011;11144;43.030;25.108;2024-01-27T02:31:20;15.13;;;6.18;;
21959;SDS011;11144;43.030;25.108;2024-01-27T02:32:53;31.50;;;14.35;;
21959;SDS011;11144;43.030;25.108;2024-01-27T02:34:26;42.85;;;21.23;;
21959;SDS011;11144;43.030;25.108;2024-01-27T02:35:58;10.75;;;3.92;;
21959;SDS011;11144;43.030;25.108;2024-01-27T02:37:32;11.98;;;2.75;;
21959;SDS011;11144;43.030;25.108;2024-01-27T02:39:04;7.00;;;2.30;;
21959;SDS011;11144;43.030;25.108;2024-01-27T02:40:39;11.52;;;3.28;;
21959;SDS011;11144;43.030;25.108;2024-01-27T02:42:11;6.57;;;2.78;;
21959;SDS011;11144;43.030;25.108;2024-01-27T02:43:45;4.38;;;2.25;;
21959;SDS011;11144;43.030;25.108;2024-01-27T02:45:17;6.35;;;2.50;;
21959;SDS011;11144;43.030;25.108;2024-01-27T02:46:51;6.47;;;3.47;;
21959;SDS011;11144;43.030;25.108;2024-01-27T02:48:23;5.10;;;3.10;;
21959;SDS011;11144;43.030;25.108;2024-01-27T02:49:57;5.07;;;2.45;;
21959;SDS011;11144;43.030;25.108;2024-01-27T02:51:29;5.82;;;3.00;;
21959;SDS011;11144;43.030;25.108;2024-01-27T02:53:02;4.57;;;2.47;;
21959;SDS011;11144;43.030;25.108;2024-01-27T02:54:35;9.23;;;3.80;;
21959;SDS011;11144;43.030;25.108;2024-01-27T02:56:10;10.05;;;3.05;;
21959;SDS011;11144;43.030;25.108;2024-01-27T02:57:42;5.65;;;1.98;;
21959;SDS011;11144;43.030;25.108;2024-01-27T02:59:15;4.57;;;2.50;;
21959;SDS011;11144;43.030;25.108;2024-01-27T03:00:48;7.43;;;2.78;;
21959;SDS011;11144;43.030;25.108;2024-01-27T03:02:21;6.55;;;3.00;;
21959;SDS011;11144;43.030;25.108;2024-01-27T03:03:55;8.13;;;3.10;;
21959;SDS011;11144;43.030;25.108;2024-01-27T03:05:27;8.32;;;2.67;;
21959;SDS011;11144;43.030;25.108;2024-01-27T03:07:00;7.72;;;2.63;;
21959;SDS011;11144;43.030;25.108;2024-01-27T03:08:33;8.77;;;2.53;;
21959;SDS011;11144;43.030;25.108;2024-01-27T03:10:07;5.15;;;2.70;;
21959;SDS011;11144;43.030;25.108;2024-01-27T03:11:40;13.07;;;5.40;;
21959;SDS011;11144;43.030;25.108;2024-01-27T03:13:14;11.05;;;3.28;;
21959;SDS011;11144;43.030;25.108;2024-01-27T03:14:46;9.27;;;3.22;;
21959;SDS011;11144;43.030;25.108;2024-01-27T03:16:21;12.60;;;3.40;;
21959;SDS011;11144;43.030;25.108;2024-01-27T03:17:53;8.07;;;3.67;;
21959;SDS011;11144;43.030;25.108;2024-01-27T03:19:27;7.97;;;3.25;;
21959;SDS011;11144;43.030;25.108;2024-01-27T03:21:00;7.93;;;2.70;;
21959;SDS011;11144;43.030;25.108;2024-01-27T03:22:33;7.40;;;3.17;;
21959;SDS011;11144;43.030;25.108;2024-01-27T03:24:05;8.38;;;3.00;;
21959;SDS011;11144;43.030;25.108;2024-01-27T03:25:39;5.13;;;2.65;;
21959;SDS011;11144;43.030;25.108;2024-01-27T03:27:13;8.07;;;3.28;;
21959;SDS011;11144;43.030;25.108;2024-01-27T03:28:46;5.20;;;3.15;;
21959;SDS011;11144;43.030;25.108;2024-01-27T03:30:19;5.88;;;2.85;;
21959;SDS011;11144;43.030;25.108;2024-01-27T03:31:52;6.10;;;2.42;;
21959;SDS011;11144;43.030;25.108;2024-01-27T03:33:25;5.10;;;2.70;;
21959;SDS011;11144;43.030;25.108;2024-01-27T03:35:01;6.22;;;2.95;;
21959;SDS011;11144;43.030;25.108;2024-01-27T03:36:34;6.47;;;2.25;;
21959;SDS011;11144;43.030;25.108;2024-01-27T03:38:07;7.53;;;2.95;;
21959;SDS011;11144;43.030;25.108;2024-01-27T03:39:41;5.22;;;2.35;;
21959;SDS011;11144;43.030;25.108;2024-01-27T03:41:14;4.75;;;2.78;;
21959;SDS011;11144;43.030;25.108;2024-01-27T03:42:48;10.25;;;5.32;;
21959;SDS011;11144;43.030;25.108;2024-01-27T03:44:21;15.40;;;6.53;;
21959;SDS011;11144;43.030;25.108;2024-01-27T03:45:54;8.25;;;4.45;;
21959;SDS011;11144;43.030;25.108;2024-01-27T03:47:27;8.15;;;4.65;;
21959;SDS011;11144;43.030;25.108;2024-01-27T03:48:59;7.15;;;3.88;;
21959;SDS011;11144;43.030;25.108;2024-01-27T03:50:33;7.88;;;4.13;;
21959;SDS011;11144;43.030;25.108;2024-01-27T03:52:06;8.38;;;3.60;;
21959;SDS011;11144;43.030;25.108;2024-01-27T03:53:39;6.50;;;3.80;;
21959;SDS011;11144;43.030;25.108;2024-01-27T03:55:12;6.43;;;3.15;;
21959;SDS011;11144;43.030;25.108;2024-01-27T03:56:45;9.93;;;3.35;;
21959;SDS011;11144;43.030;25.108;2024-01-27T03:58:21;18.65;;;4.75;;
21959;SDS011;11144;43.030;25.108;2024-01-27T03:59:53;8.30;;;3.47;;
21959;SDS011;11144;43.030;25.108;2024-01-27T04:01:26;9.10;;;2.78;;
21959;SDS011;11144;43.030;25.108;2024-01-27T04:02:58;18.90;;;7.38;;
21959;SDS011;11144;43.030;25.108;2024-01-27T04:04:32;12.80;;;5.82;;
21959;SDS011;11144;43.030;25.108;2024-01-27T04:06:04;13.93;;;4.95;;
21959;SDS011;11144;43.030;25.108;2024-01-27T04:07:38;11.27;;;4.55;;
21959;SDS011;11144;43.030;25.108;2024-01-27T04:09:11;10.10;;;3.63;;
21959;SDS011;11144;43.030;25.108;2024-01-27T04:10:45;9.95;;;3.60;;
21959;SDS011;11144;43.030;25.108;2024-01-27T04:12:17;7.00;;;2.78;;
21959;SDS011;11144;43.030;25.108;2024-01-27T04:13:52;10.48;;;3.33;;
21959;SDS011;11144;43.030;25.108;2024-01-27T04:15:24;6.70;;;2.72;;
21959;SDS011;11144;43.030;25.108;2024-01-27T04:16:58;5.43;;;2.90;;
21959;SDS011;11144;43.030;25.108;2024-01-27T04:18:31;5.57;;;2.95;;
21959;SDS011;11144;43.030;25.108;2024-01-27T04:20:05;11.20;;;3.50;;
21959;SDS011;11144;43.030;25.108;2024-01-27T04:21:38;68.55;;;22.50;;
21959;SDS011;11144;43.030;25.108;2024-01-27T04:23:13;76.97;;;26.92;;
21959;SDS011;11144;43.030;25.108;2024-01-27T04:24:45;67.55;;;23.38;;
21959;SDS011;11144;43.030;25.108;2024-01-27T04:26:18;61.97;;;22.20;;
21959;SDS011;11144;43.030;25.108;2024-01-27T04:27:51;53.53;;;19.10;;
21959;SDS011;11144;43.030;25.108;2024-01-27T04:29:26;39.38;;;16.45;;
21959;SDS011;11144;43.030;25.108;2024-01-27T04:30:58;27.15;;;11.05;;
21959;SDS011;11144;43.030;25.108;2024-01-27T04:32:31;16.00;;;7.05;;
21959;SDS011;11144;43.030;25.108;2024-01-27T04:34:05;8.80;;;4.78;;
21959;SDS011;11144;43.030;25.108;2024-01-27T04:35:37;14.85;;;6.22;;
21959;SDS011;11144;43.030;25.108;2024-01-27T04:37:11;18.15;;;7.10;;
21959;SDS011;11144;43.030;25.108;2024-01-27T04:38:44;12.05;;;5.97;;
21959;SDS011;11144;43.030;25.108;2024-01-27T04:40:16;9.60;;;4.70;;
21959;SDS011;11144;43.030;25.108;2024-01-27T04:41:50;13.20;;;5.05;;
21959;SDS011;11144;43.030;25.108;2024-01-27T04:43:23;17.58;;;7.30;;
21959;SDS011;11144;43.030;25.108;2024-01-27T04:44:57;14.30;;;5.60;;
21959;SDS011;11144;43.030;25.108;2024-01-27T04:46:30;14.70;;;6.53;;
21959;SDS011;11144;43.030;25.108;2024-01-27T04:48:03;15.73;;;5.95;;
21959;SDS011;11144;43.030;25.108;2024-01-27T04:49:37;23.90;;;7.60;;
21959;SDS011;11144;43.030;25.108;2024-01-27T04:51:09;19.35;;;6.85;;
21959;SDS011;11144;43.030;25.108;2024-01-27T04:52:43;24.02;;;8.60;;
21959;SDS011;11144;43.030;25.108;2024-01-27T04:54:16;26.98;;;11.07;;
21959;SDS011;11144;43.030;25.108;2024-01-27T04:55:49;23.85;;;10.27;;
21959;SDS011;11144;43.030;25.108;2024-01-27T04:57:22;26.80;;;12.18;;
21959;SDS011;11144;43.030;25.108;2024-01-27T04:58:55;30.10;;;10.27;;
21959;SDS011;11144;43.030;25.108;2024-01-27T05:00:30;20.48;;;7.93;;
21959;SDS011;11144;43.030;25.108;2024-01-27T05:02:02;10.75;;;4.57;;
21959;SDS011;11144;43.030;25.108;2024-01-27T05:03:36;10.32;;;4.40;;
21959;SDS011;11144;43.030;25.108;2024-01-27T05:05:08;14.50;;;5.63;;
21959;SDS011;11144;43.030;25.108;2024-01-27T05:06:43;13.82;;;5.40;;
21959;SDS011;11144;43.030;25.108;2024-01-27T05:08:17;9.40;;;3.70;;
21959;SDS011;11144;43.030;25.108;2024-01-27T05:09:50;16.48;;;5.68;;
21959;SDS011;11144;43.030;25.108;2024-01-27T05:11:29;8.60;;;4.32;;
21959;SDS011;11144;43.030;25.108;2024-01-27T05:13:03;9.30;;;3.72;;
21959;SDS011;11144;43.030;25.108;2024-01-27T05:14:36;10.52;;;4.18;;
21959;SDS011;11144;43.030;25.108;2024-01-27T05:16:10;7.82;;;3.05;;
21959;SDS011;11144;43.030;25.108;2024-01-27T05:17:43;5.78;;;2.90;;
21959;SDS011;11144;43.030;25.108;2024-01-27T05:19:15;8.73;;;3.72;;
21959;SDS011;11144;43.030;25.108;2024-01-27T05:20:49;17.30;;;6.93;;
21959;SDS011;11144;43.030;25.108;2024-01-27T05:22:22;14.40;;;5.90;;
21959;SDS011;11144;43.030;25.108;2024-01-27T05:23:55;15.38;;;6.25;;
21959;SDS011;11144;43.030;25.108;2024-01-27T05:25:28;11.05;;;3.67;;
21959;SDS011;11144;43.030;25.108;2024-01-27T05:27:01;9.45;;;3.33;;
21959;SDS011;11144;43.030;25.108;2024-01-27T05:28:34;9.27;;;2.97;;
21959;SDS011;11144;43.030;25.108;2024-01-27T05:30:07;9.00;;;3.90;;
21959;SDS011;11144;43.030;25.108;2024-01-27T05:31:42;12.80;;;6.43;;
21959;SDS011;11144;43.030;25.108;2024-01-27T05:33:15;13.18;;;6.35;;
21959;SDS011;11144;43.030;25.108;2024-01-27T05:34:49;20.85;;;8.32;;
21959;SDS011;11144;43.030;25.108;2024-01-27T05:36:21;17.55;;;8.05;;
21959;SDS011;11144;43.030;25.108;2024-01-27T05:37:55;17.23;;;8.05;;
21959;SDS011;11144;43.030;25.108;2024-01-27T05:39:28;23.73;;;12.82;;
21959;SDS011;11144;43.030;25.108;2024-01-27T05:41:02;21.45;;;10.05;;
21959;SDS011;11144;43.030;25.108;2024-01-27T05:42:35;20.42;;;9.38;;
21959;SDS011;11144;43.030;25.108;2024-01-27T05:44:09;20.58;;;9.25;;
21959;SDS011;11144;43.030;25.108;2024-01-27T05:45:41;24.58;;;11.00;;
21959;SDS011;11144;43.030;25.108;2024-01-27T05:47:16;22.33;;;11.65;;
21959;SDS011;11144;43.030;25.108;2024-01-27T05:48:48;43.28;;;18.98;;
21959;SDS011;11144;43.030;25.108;2024-01-27T05:50:22;122.55;;;46.60;;
21959;SDS011;11144;43.030;25.108;2024-01-27T05:51:55;74.55;;;28.90;;
21959;SDS011;11144;43.030;25.108;2024-01-27T05:53:28;64.40;;;26.70;;
21959;SDS011;11144;43.030;25.108;2024-01-27T05:55:01;64.75;;;26.00;;
21959;SDS011;11144;43.030;25.108;2024-01-27T05:56:34;55.00;;;24.65;;
21959;SDS011;11144;43.030;25.108;2024-01-27T05:58:08;47.17;;;21.52;;
21959;SDS011;11144;43.030;25.108;2024-01-27T05:59:41;43.40;;;20.10;;
21959;SDS011;11144;43.030;25.108;2024-01-27T06:01:13;33.75;;;16.30;;
21959;SDS011;11144;43.030;25.108;2024-01-27T06:02:49;18.80;;;11.07;;
21959;SDS011;11144;43.030;25.108;2024-01-27T06:04:21;31.17;;;14.88;;
21959;SDS011;11144;43.030;25.108;2024-01-27T06:05:54;36.65;;;17.55;;
21959;SDS011;11144;43.030;25.108;2024-01-27T06:07:27;27.55;;;13.55;;
21959;SDS011;11144;43.030;25.108;2024-01-27T06:09:01;35.10;;;15.45;;
21959;SDS011;11144;43.030;25.108;2024-01-27T06:10:35;23.38;;;11.65;;
21959;SDS011;11144;43.030;25.108;2024-01-27T06:12:09;22.02;;;10.25;;
21959;SDS011;11144;43.030;25.108;2024-01-27T06:13:42;21.00;;;10.10;;
21959;SDS011;11144;43.030;25.108;2024-01-27T06:15:15;23.75;;;10.80;;
21959;SDS011;11144;43.030;25.108;2024-01-27T06:16:49;21.85;;;8.80;;
21959;SDS011;11144;43.030;25.108;2024-01-27T06:18:24;29.27;;;12.10;;
21959;SDS011;11144;43.030;25.108;2024-01-27T06:19:57;24.33;;;12.15;;
21959;SDS011;11144;43.030;25.108;2024-01-27T06:21:30;21.17;;;9.63;;
21959;SDS011;11144;43.030;25.108;2024-01-27T06:23:03;37.42;;;20.42;;
21959;SDS011;11144;43.030;25.108;2024-01-27T06:24:40;20.38;;;9.75;;
21959;SDS011;11144;43.030;25.108;2024-01-27T06:26:14;31.60;;;14.60;;
21959;SDS011;11144;43.030;25.108;2024-01-27T06:27:47;21.50;;;11.48;;
21959;SDS011;11144;43.030;25.108;2024-01-27T06:29:20;24.08;;;11.90;;
21959;SDS011;11144;43.030;25.108;2024-01-27T06:30:54;17.85;;;9.38;;
21959;SDS011;11144;43.030;25.108;2024-01-27T06:32:28;24.67;;;12.63;;
21959;SDS011;11144;43.030;25.108;2024-01-27T06:34:02;20.88;;;9.75;;
21959;SDS011;11144;43.030;25.108;2024-01-27T06:35:35;21.13;;;10.30;;
21959;SDS011;11144;43.030;25.108;2024-01-27T06:37:07;22.17;;;8.52;;
21959;SDS011;11144;43.030;25.108;2024-01-27T06:38:41;18.65;;;9.30;;
21959;SDS011;11144;43.030;25.108;2024-01-27T06:40:13;25.77;;;11.68;;
21959;SDS011;11144;43.030;25.108;2024-01-27T06:41:47;23.02;;;12.05;;
21959;SDS011;11144;43.030;25.108;2024-01-27T06:43:19;29.92;;;13.95;;
21959;SDS011;11144;43.030;25.108;2024-01-27T06:44:53;53.45;;;23.85;;
21959;SDS011;11144;43.030;25.108;2024-01-27T06:46:26;50.10;;;27.08;;
21959;SDS011;11144;43.030;25.108;2024-01-27T06:47:59;57.53;;;30.15;;
21959;SDS011;11144;43.030;25.108;2024-01-27T06:49:34;37.83;;;22.77;;
21959;SDS011;11144;43.030;25.108;2024-01-27T06:51:07;41.03;;;19.23;;
21959;SDS011;11144;43.030;25.108;2024-01-27T06:52:39;18.90;;;10.13;;
21959;SDS011;11144;43.030;25.108;2024-01-27T06:54:13;21.00;;;11.20;;
21959;SDS011;11144;43.030;25.108;2024-01-27T06:55:45;18.65;;;9.85;;
21959;SDS011;11144;43.030;25.108;2024-01-27T06:57:18;25.98;;;12.60;;
21959;SDS011;11144;43.030;25.108;2024-01-27T06:58:52;19.90;;;10.18;;
21959;SDS011;11144;43.030;25.108;2024-01-27T07:00:25;23.95;;;11.57;;
21959;SDS011;11144;43.030;25.108;2024-01-27T07:01:57;42.13;;;19.85;;
21959;SDS011;11144;43.030;25.108;2024-01-27T07:03:31;28.50;;;15.25;;
21959;SDS011;11144;43.030;25.108;2024-01-27T07:05:05;37.03;;;15.57;;
21959;SDS011;11144;43.030;25.108;2024-01-27T07:06:39;27.85;;;14.30;;
21959;SDS011;11144;43.030;25.108;2024-01-27T07:08:11;23.75;;;12.23;;
21959;SDS011;11144;43.030;25.108;2024-01-27T07:09:45;25.13;;;14.15;;
21959;SDS011;11144;43.030;25.108;2024-01-27T07:11:17;27.73;;;14.88;;
21959;SDS011;11144;43.030;25.108;2024-01-27T07:12:50;35.33;;;17.70;;
21959;SDS011;11144;43.030;25.108;2024-01-27T07:14:23;44.50;;;21.17;;
21959;SDS011;11144;43.030;25.108;2024-01-27T07:15:56;41.35;;;21.00;;
21959;SDS011;11144;43.030;25.108;2024-01-27T07:17:29;40.75;;;19.15;;
21959;SDS011;11144;43.030;25.108;2024-01-27T07:19:02;50.78;;;33.08;;
21959;SDS011;11144;43.030;25.108;2024-01-27T07:20:36;65.28;;;34.60;;
21959;SDS011;11144;43.030;25.108;2024-01-27T07:22:09;48.30;;;28.73;;
21959;SDS011;11144;43.030;25.108;2024-01-27T07:23:42;53.17;;;26.20;;
21959;SDS011;11144;43.030;25.108;2024-01-27T07:25:15;34.78;;;16.92;;
21959;SDS011;11144;43.030;25.108;2024-01-27T07:26:48;34.78;;;21.17;;
21959;SDS011;11144;43.030;25.108;2024-01-27T07:28:24;18.98;;;8.43;;
21959;SDS011;11144;43.030;25.108;2024-01-27T07:29:58;28.23;;;13.82;;
21959;SDS011;11144;43.030;25.108;2024-01-27T07:31:30;30.63;;;15.20;;
21959;SDS011;11144;43.030;25.108;2024-01-27T07:33:04;30.92;;;18.77;;
21959;SDS011;11144;43.030;25.108;2024-01-27T07:34:36;25.50;;;14.02;;
21959;SDS011;11144;43.030;25.108;2024-01-27T07:36:11;33.15;;;15.63;;
21959;SDS011;11144;43.030;25.108;2024-01-27T07:37:43;49.60;;;25.65;;
21959;SDS011;11144;43.030;25.108;2024-01-27T07:39:17;50.78;;;23.35;;
21959;SDS011;11144;43.030;25.108;2024-01-27T07:40:49;45.47;;;23.60;;
21959;SDS011;11144;43.030;25.108;2024-01-27T07:42:22;35.30;;;17.27;;
21959;SDS011;11144;43.030;25.108;2024-01-27T07:43:55;51.75;;;25.60;;
21959;SDS011;11144;43.030;25.108;2024-01-27T07:45:28;49.40;;;25.58;;
21959;SDS011;11144;43.030;25.108;2024-01-27T07:47:01;55.97;;;35.08;;
21959;SDS011;11144;43.030;25.108;2024-01-27T07:48:34;47.58;;;25.90;;
21959;SDS011;11144;43.030;25.108;2024-01-27T07:50:07;34.20;;;18.30;;
21959;SDS011;11144;43.030;25.108;2024-01-27T07:51:42;49.72;;;27.20;;
21959;SDS011;11144;43.030;25.108;2024-01-27T07:53:16;34.58;;;21.85;;
21959;SDS011;11144;43.030;25.108;2024-01-27T07:54:48;42.00;;;24.70;;
21959;SDS011;11144;43.030;25.108;2024-01-27T07:56:22;31.73;;;18.73;;
21959;SDS011;11144;43.030;25.108;2024-01-27T07:57:54;28.00;;;16.33;;
21959;SDS011;11144;43.030;25.108;2024-01-27T07:59:27;23.70;;;14.05;;
21959;SDS011;11144;43.030;25.108;2024-01-27T08:01:00;23.50;;;13.60;;
21959;SDS011;11144;43.030;25.108;2024-01-27T08:02:33;30.85;;;16.75;;
21959;SDS011;11144;43.030;25.108;2024-01-27T08:04:07;25.73;;;15.82;;
21959;SDS011;11144;43.030;25.108;2024-01-27T08:05:40;20.38;;;12.00;;
21959;SDS011;11144;43.030;25.108;2024-01-27T08:07:15;29.73;;;14.98;;
21959;SDS011;11144;43.030;25.108;2024-01-27T08:08:48;25.48;;;14.43;;
21959;SDS011;11144;43.030;25.108;2024-01-27T08:10:22;19.92;;;10.20;;
21959;SDS011;11144;43.030;25.108;2024-01-27T08:11:54;12.35;;;7.03;;
21959;SDS011;11144;43.030;25.108;2024-01-27T08:13:27;17.25;;;7.28;;
21959;SDS011;11144;43.030;25.108;2024-01-27T08:15:00;11.55;;;6.28;;
21959;SDS011;11144;43.030;25.108;2024-01-27T08:16:35;20.83;;;12.13;;
21959;SDS011;11144;43.030;25.108;2024-01-27T08:18:07;30.42;;;19.92;;
21959;SDS011;11144;43.030;25.108;2024-01-27T08:19:41;22.42;;;13.15;;
21959;SDS011;11144;43.030;25.108;2024-01-27T08:21:13;34.78;;;20.27;;
21959;SDS011;11144;43.030;25.108;2024-01-27T08:22:49;11.88;;;7.10;;
21959;SDS011;11144;43.030;25.108;2024-01-27T08:24:23;19.92;;;11.25;;
21959;SDS011;11144;43.030;25.108;2024-01-27T08:25:56;20.75;;;12.25;;
21959;SDS011;11144;43.030;25.108;2024-01-27T08:27:29;13.85;;;8.45;;
21959;SDS011;11144;43.030;25.108;2024-01-27T08:29:02;16.55;;;7.47;;
21959;SDS011;11144;43.030;25.108;2024-01-27T08:30:35;15.75;;;8.05;;
21959;SDS011;11144;43.030;25.108;2024-01-27T08:32:09;11.32;;;6.80;;
21959;SDS011;11144;43.030;25.108;2024-01-27T08:33:42;11.85;;;6.53;;
21959;SDS011;11144;43.030;25.108;2024-01-27T08:35:15;20.02;;;10.45;;
21959;SDS011;11144;43.030;25.108;2024-01-27T08:36:48;23.98;;;12.57;;
21959;SDS011;11144;43.030;25.108;2024-01-27T08:38:22;23.85;;;13.93;;
21959;SDS011;11144;43.030;25.108;2024-01-27T08:39:55;15.85;;;7.65;;
21959;SDS011;11144;43.030;25.108;2024-01-27T08:41:28;19.23;;;9.68;;
21959;SDS011;11144;43.030;25.108;2024-01-27T08:43:01;23.17;;;13.45;;
21959;SDS011;11144;43.030;25.108;2024-01-27T08:44:34;21.38;;;12.00;;
21959;SDS011;11144;43.030;25.108;2024-01-27T08:46:07;48.15;;;22.98;;
21959;SDS011;11144;43.030;25.108;2024-01-27T08:47:43;65.38;;;33.70;;
21959;SDS011;11144;43.030;25.108;2024-01-27T08:49:15;75.72;;;36.58;;
21959;SDS011;11144;43.030;25.108;2024-01-27T08:50:49;63.47;;;32.85;;
21959;SDS011;11144;43.030;25.108;2024-01-27T08:52:21;42.05;;;22.27;;
21959;SDS011;11144;43.030;25.108;2024-01-27T08:53:56;25.40;;;11.93;;
21959;SDS011;11144;43.030;25.108;2024-01-27T08:55:28;14.93;;;5.90;;
21959;SDS011;11144;43.030;25.108;2024-01-27T08:57:02;16.40;;;8.18;;
21959;SDS011;11144;43.030;25.108;2024-01-27T08:58:35;8.30;;;4.15;;
21959;SDS011;11144;43.030;25.108;2024-01-27T09:00:08;12.70;;;7.45;;
21959;SDS011;11144;43.030;25.108;2024-01-27T09:01:43;6.65;;;3.33;;
21959;SDS011;11144;43.030;25.108;2024-01-27T09:03:16;14.73;;;6.13;;
21959;SDS011;11144;43.030;25.108;2024-01-27T09:04:49;10.18;;;6.18;;